sensor_id;sensor_type;location;lat;lon;timestamp;temperature;humidity
40868;DHT22;26586;50.708;22.412;2022-07-01T00:00:11;28.90;51.40
40868;DHT22;26586;50.708;22.412;2022-07-01T00:02:58;28.90;51.40
40868;DHT22;26586;50.708;22.412;2022-07-01T00:05:24;28.80;51.30
40868;DHT22;26586;50.708;22.412;2022-07-01T00:07:50;28.80;51.40
40868;DHT22;26586;50.708;22.412;2022-07-01T00:10:16;28.80;51.30
40868;DHT22;26586;50.708;22.412;2022-07-01T00:12:43;28.80;51.40
40868;DHT22;26586;50.708;22.412;2022-07-01T00:15:09;28.80;51.30
40868;DHT22;26586;50.708;22.412;2022-07-01T00:17:36;28.80;51.20
40868;DHT22;26586;50.708;22.412;2022-07-01T00:20:04;28.70;51.20
40868;DHT22;26586;50.708;22.412;2022-07-01T00:22:30;28.70;51.30
40868;DHT22;26586;50.708;22.412;2022-07-01T00:24:56;28.70;51.30
40868;DHT22;26586;50.708;22.412;2022-07-01T00:27:22;28.70;51.30
40868;DHT22;26586;50.708;22.412;2022-07-01T00:29:48;28.70;51.40
40868;DHT22;26586;50.708;22.412;2022-07-01T00:32:14;28.70;51.30
40868;DHT22;26586;50.708;22.412;2022-07-01T00:34:41;28.70;51.30
40868;DHT22;26586;50.708;22.412;2022-07-01T00:37:07;28.70;51.30
40868;DHT22;26586;50.708;22.412;2022-07-01T00:39:33;28.60;51.20
40868;DHT22;26586;50.708;22.412;2022-07-01T00:42:02;28.60;51.40
40868;DHT22;26586;50.708;22.412;2022-07-01T00:44:30;28.60;51.50
40868;DHT22;26586;50.708;22.412;2022-07-01T00:46:58;28.60;51.50
40868;DHT22;26586;50.708;22.412;2022-07-01T00:49:25;28.60;51.70
40868;DHT22;26586;50.708;22.412;2022-07-01T00:51:53;28.60;52.10
40868;DHT22;26586;50.708;22.412;2022-07-01T00:54:20;28.60;52.40
40868;DHT22;26586;50.708;22.412;2022-07-01T00:56:47;28.60;52.50
40868;DHT22;26586;50.708;22.412;2022-07-01T00:59:14;28.50;52.60
40868;DHT22;26586;50.708;22.412;2022-07-01T01:01:41;28.50;52.70
40868;DHT22;26586;50.708;22.412;2022-07-01T01:04:07;28.50;52.70
40868;DHT22;26586;50.708;22.412;2022-07-01T01:06:33;28.50;52.80
40868;DHT22;26586;50.708;22.412;2022-07-01T01:09:00;28.50;52.70
40868;DHT22;26586;50.708;22.412;2022-07-01T01:11:26;28.50;52.70
40868;DHT22;26586;50.708;22.412;2022-07-01T01:13:53;28.50;52.60
40868;DHT22;26586;50.708;22.412;2022-07-01T01:16:20;28.40;52.80
40868;DHT22;26586;50.708;22.412;2022-07-01T01:18:47;28.40;52.60
40868;DHT22;26586;50.708;22.412;2022-07-01T01:21:13;28.40;52.50
40868;DHT22;26586;50.708;22.412;2022-07-01T01:23:39;28.40;52.40
40868;DHT22;26586;50.708;22.412;2022-07-01T01:26:21;28.40;52.40
40868;DHT22;26586;50.708;22.412;2022-07-01T01:28:50;28.30;52.40
40868;DHT22;26586;50.708;22.412;2022-07-01T01:31:17;28.40;52.60
40868;DHT22;26586;50.708;22.412;2022-07-01T01:33:44;28.30;52.50
40868;DHT22;26586;50.708;22.412;2022-07-01T01:36:11;28.30;52.60
40868;DHT22;26586;50.708;22.412;2022-07-01T01:38:37;28.30;52.70
40868;DHT22;26586;50.708;22.412;2022-07-01T01:41:04;28.30;52.70
40868;DHT22;26586;50.708;22.412;2022-07-01T01:43:31;28.30;52.70
40868;DHT22;26586;50.708;22.412;2022-07-01T01:46:01;28.30;52.90
40868;DHT22;26586;50.708;22.412;2022-07-01T01:48:28;28.30;52.90
40868;DHT22;26586;50.708;22.412;2022-07-01T01:50:55;28.20;52.70
40868;DHT22;26586;50.708;22.412;2022-07-01T01:53:21;28.20;52.80
40868;DHT22;26586;50.708;22.412;2022-07-01T01:55:47;28.20;52.60
40868;DHT22;26586;50.708;22.412;2022-07-01T01:58:13;28.20;53.00
40868;DHT22;26586;50.708;22.412;2022-07-01T02:00:39;28.20;52.90
40868;DHT22;26586;50.708;22.412;2022-07-01T02:03:05;28.20;52.90
40868;DHT22;26586;50.708;22.412;2022-07-01T02:05:32;28.20;52.80
40868;DHT22;26586;50.708;22.412;2022-07-01T02:07:59;28.20;52.60
40868;DHT22;26586;50.708;22.412;2022-07-01T02:10:25;28.10;52.40
40868;DHT22;26586;50.708;22.412;2022-07-01T02:12:51;28.10;52.50
40868;DHT22;26586;50.708;22.412;2022-07-01T02:15:18;28.10;52.60
40868;DHT22;26586;50.708;22.412;2022-07-01T02:17:44;28.10;52.70
40868;DHT22;26586;50.708;22.412;2022-07-01T02:20:10;28.10;52.60
40868;DHT22;26586;50.708;22.412;2022-07-01T02:22:41;28.10;52.40
40868;DHT22;26586;50.708;22.412;2022-07-01T02:25:08;28.10;52.30
40868;DHT22;26586;50.708;22.412;2022-07-01T02:27:34;28.10;52.20
40868;DHT22;26586;50.708;22.412;2022-07-01T02:30:03;28.00;52.10
40868;DHT22;26586;50.708;22.412;2022-07-01T02:32:31;28.00;52.00
40868;DHT22;26586;50.708;22.412;2022-07-01T02:34:57;28.00;52.00
40868;DHT22;26586;50.708;22.412;2022-07-01T02:37:24;28.00;51.90
40868;DHT22;26586;50.708;22.412;2022-07-01T02:39:50;28.00;51.80
40868;DHT22;26586;50.708;22.412;2022-07-01T02:42:16;28.00;51.80
40868;DHT22;26586;50.708;22.412;2022-07-01T02:44:57;28.00;51.80
40868;DHT22;26586;50.708;22.412;2022-07-01T02:47:23;28.00;51.80
40868;DHT22;26586;50.708;22.412;2022-07-01T02:49:50;28.00;52.00
40868;DHT22;26586;50.708;22.412;2022-07-01T02:52:21;28.00;52.00
40868;DHT22;26586;50.708;22.412;2022-07-01T02:54:47;27.90;51.80
40868;DHT22;26586;50.708;22.412;2022-07-01T02:57:13;27.90;51.80
40868;DHT22;26586;50.708;22.412;2022-07-01T02:59:39;27.90;51.90
40868;DHT22;26586;50.708;22.412;2022-07-01T03:02:05;27.90;52.00
40868;DHT22;26586;50.708;22.412;2022-07-01T03:04:32;27.90;52.00
40868;DHT22;26586;50.708;22.412;2022-07-01T03:06:58;27.90;52.00
40868;DHT22;26586;50.708;22.412;2022-07-01T03:09:24;27.90;52.10
40868;DHT22;26586;50.708;22.412;2022-07-01T03:11:51;27.80;52.40
40868;DHT22;26586;50.708;22.412;2022-07-01T03:14:17;27.90;52.60
40868;DHT22;26586;50.708;22.412;2022-07-01T03:16:43;27.80;52.70
40868;DHT22;26586;50.708;22.412;2022-07-01T03:19:09;27.80;52.70
40868;DHT22;26586;50.708;22.412;2022-07-01T03:21:35;27.80;52.70
40868;DHT22;26586;50.708;22.412;2022-07-01T03:24:01;27.80;52.70
40868;DHT22;26586;50.708;22.412;2022-07-01T03:26:28;27.80;53.30
40868;DHT22;26586;50.708;22.412;2022-07-01T03:28:54;27.80;53.00
40868;DHT22;26586;50.708;22.412;2022-07-01T03:31:20;27.80;53.10
40868;DHT22;26586;50.708;22.412;2022-07-01T03:33:46;27.80;53.10
40868;DHT22;26586;50.708;22.412;2022-07-01T03:36:12;27.80;53.20
40868;DHT22;26586;50.708;22.412;2022-07-01T03:38:39;27.80;53.70
40868;DHT22;26586;50.708;22.412;2022-07-01T03:41:05;27.80;53.80
40868;DHT22;26586;50.708;22.412;2022-07-01T03:43:31;27.80;53.70
40868;DHT22;26586;50.708;22.412;2022-07-01T03:45:57;27.70;53.70
40868;DHT22;26586;50.708;22.412;2022-07-01T03:48:23;27.80;53.90
40868;DHT22;26586;50.708;22.412;2022-07-01T03:50:51;27.80;54.50
40868;DHT22;26586;50.708;22.412;2022-07-01T03:53:18;27.80;54.70
40868;DHT22;26586;50.708;22.412;2022-07-01T03:56:02;27.80;55.10
40868;DHT22;26586;50.708;22.412;2022-07-01T03:58:29;27.80;54.80
40868;DHT22;26586;50.708;22.412;2022-07-01T04:00:55;27.80;55.40
40868;DHT22;26586;50.708;22.412;2022-07-01T04:03:21;27.80;55.60
40868;DHT22;26586;50.708;22.412;2022-07-01T04:05:47;27.80;55.70
40868;DHT22;26586;50.708;22.412;2022-07-01T04:08:13;27.80;55.90
40868;DHT22;26586;50.708;22.412;2022-07-01T04:10:40;27.80;56.00
40868;DHT22;26586;50.708;22.412;2022-07-01T04:13:07;27.80;56.20
40868;DHT22;26586;50.708;22.412;2022-07-01T04:15:33;27.90;56.20
40868;DHT22;26586;50.708;22.412;2022-07-01T04:18:00;27.90;56.50
40868;DHT22;26586;50.708;22.412;2022-07-01T04:20:26;27.90;56.70
40868;DHT22;26586;50.708;22.412;2022-07-01T04:22:52;27.90;56.80
40868;DHT22;26586;50.708;22.412;2022-07-01T04:25:18;27.90;56.80
40868;DHT22;26586;50.708;22.412;2022-07-01T04:27:44;27.90;56.90
40868;DHT22;26586;50.708;22.412;2022-07-01T04:30:11;28.00;57.00
40868;DHT22;26586;50.708;22.412;2022-07-01T04:32:38;28.00;56.90
40868;DHT22;26586;50.708;22.412;2022-07-01T04:35:05;28.00;57.50
40868;DHT22;26586;50.708;22.412;2022-07-01T04:37:31;28.00;56.90
40868;DHT22;26586;50.708;22.412;2022-07-01T04:39:57;28.00;56.90
40868;DHT22;26586;50.708;22.412;2022-07-01T04:42:24;28.00;56.90
40868;DHT22;26586;50.708;22.412;2022-07-01T04:44:50;28.00;57.00
40868;DHT22;26586;50.708;22.412;2022-07-01T04:47:17;28.10;57.20
40868;DHT22;26586;50.708;22.412;2022-07-01T04:49:43;28.10;57.30
40868;DHT22;26586;50.708;22.412;2022-07-01T04:52:10;28.10;57.30
40868;DHT22;26586;50.708;22.412;2022-07-01T04:54:36;28.20;57.40
40868;DHT22;26586;50.708;22.412;2022-07-01T04:57:02;28.20;57.30
40868;DHT22;26586;50.708;22.412;2022-07-01T04:59:28;28.20;57.50
40868;DHT22;26586;50.708;22.412;2022-07-01T05:01:55;28.20;57.20
40868;DHT22;26586;50.708;22.412;2022-07-01T05:04:21;28.30;57.20
40868;DHT22;26586;50.708;22.412;2022-07-01T05:06:47;28.30;57.20
40868;DHT22;26586;50.708;22.412;2022-07-01T05:09:13;28.30;57.10
40868;DHT22;26586;50.708;22.412;2022-07-01T05:11:40;28.40;57.10
40868;DHT22;26586;50.708;22.412;2022-07-01T05:14:07;28.40;57.00
40868;DHT22;26586;50.708;22.412;2022-07-01T05:16:34;28.40;56.90
40868;DHT22;26586;50.708;22.412;2022-07-01T05:19:00;28.50;56.50
40868;DHT22;26586;50.708;22.412;2022-07-01T05:21:45;28.50;56.70
40868;DHT22;26586;50.708;22.412;2022-07-01T05:24:28;28.50;56.40
40868;DHT22;26586;50.708;22.412;2022-07-01T05:26:57;28.60;56.60
40868;DHT22;26586;50.708;22.412;2022-07-01T05:29:23;28.60;56.20
40868;DHT22;26586;50.708;22.412;2022-07-01T05:31:50;28.60;56.50
40868;DHT22;26586;50.708;22.412;2022-07-01T05:34:16;28.70;56.50
40868;DHT22;26586;50.708;22.412;2022-07-01T05:36:43;28.70;56.50
40868;DHT22;26586;50.708;22.412;2022-07-01T05:39:09;28.80;56.40
40868;DHT22;26586;50.708;22.412;2022-07-01T05:41:35;28.80;56.30
40868;DHT22;26586;50.708;22.412;2022-07-01T05:44:01;28.90;56.30
40868;DHT22;26586;50.708;22.412;2022-07-01T05:46:27;28.90;56.20
40868;DHT22;26586;50.708;22.412;2022-07-01T05:48:54;29.00;55.90
40868;DHT22;26586;50.708;22.412;2022-07-01T05:51:20;29.00;55.60
40868;DHT22;26586;50.708;22.412;2022-07-01T05:53:46;29.10;55.40
40868;DHT22;26586;50.708;22.412;2022-07-01T05:56:13;29.10;55.30
40868;DHT22;26586;50.708;22.412;2022-07-01T05:58:40;29.20;55.00
40868;DHT22;26586;50.708;22.412;2022-07-01T06:01:06;29.20;54.80
40868;DHT22;26586;50.708;22.412;2022-07-01T06:03:32;29.30;54.70
40868;DHT22;26586;50.708;22.412;2022-07-01T06:05:58;29.40;54.60
40868;DHT22;26586;50.708;22.412;2022-07-01T06:08:24;29.40;54.40
40868;DHT22;26586;50.708;22.412;2022-07-01T06:10:51;29.50;54.30
40868;DHT22;26586;50.708;22.412;2022-07-01T06:13:17;29.60;54.10
40868;DHT22;26586;50.708;22.412;2022-07-01T06:15:43;29.60;53.70
40868;DHT22;26586;50.708;22.412;2022-07-01T06:18:09;29.70;52.90
40868;DHT22;26586;50.708;22.412;2022-07-01T06:20:36;29.70;53.10
40868;DHT22;26586;50.708;22.412;2022-07-01T06:23:02;29.80;52.90
40868;DHT22;26586;50.708;22.412;2022-07-01T06:25:28;29.80;52.90
40868;DHT22;26586;50.708;22.412;2022-07-01T06:27:54;30.00;53.00
40868;DHT22;26586;50.708;22.412;2022-07-01T06:30:20;30.00;52.90
40868;DHT22;26586;50.708;22.412;2022-07-01T06:32:47;30.10;52.90
40868;DHT22;26586;50.708;22.412;2022-07-01T06:35:13;30.10;51.80
40868;DHT22;26586;50.708;22.412;2022-07-01T06:37:39;30.20;52.10
40868;DHT22;26586;50.708;22.412;2022-07-01T06:40:06;30.20;51.60
40868;DHT22;26586;50.708;22.412;2022-07-01T06:42:32;30.30;51.10
40868;DHT22;26586;50.708;22.412;2022-07-01T06:44:59;30.40;51.50
40868;DHT22;26586;50.708;22.412;2022-07-01T06:47:25;30.40;51.60
40868;DHT22;26586;50.708;22.412;2022-07-01T06:49:52;30.50;51.50
40868;DHT22;26586;50.708;22.412;2022-07-01T06:52:18;30.60;51.40
40868;DHT22;26586;50.708;22.412;2022-07-01T06:54:44;30.60;51.30
40868;DHT22;26586;50.708;22.412;2022-07-01T06:57:10;30.70;51.10
40868;DHT22;26586;50.708;22.412;2022-07-01T06:59:36;30.70;50.10
40868;DHT22;26586;50.708;22.412;2022-07-01T07:02:03;30.80;50.40
40868;DHT22;26586;50.708;22.412;2022-07-01T07:04:33;30.90;50.70
40868;DHT22;26586;50.708;22.412;2022-07-01T07:07:00;31.00;50.80
40868;DHT22;26586;50.708;22.412;2022-07-01T07:09:27;31.00;49.30
40868;DHT22;26586;50.708;22.412;2022-07-01T07:11:54;31.10;49.60
40868;DHT22;26586;50.708;22.412;2022-07-01T07:14:21;31.10;49.10
40868;DHT22;26586;50.708;22.412;2022-07-01T07:16:47;31.10;49.80
40868;DHT22;26586;50.708;22.412;2022-07-01T07:19:14;31.20;49.30
40868;DHT22;26586;50.708;22.412;2022-07-01T07:21:40;31.30;48.90
40868;DHT22;26586;50.708;22.412;2022-07-01T07:24:06;31.30;48.60
40868;DHT22;26586;50.708;22.412;2022-07-01T07:26:33;31.40;48.50
40868;DHT22;26586;50.708;22.412;2022-07-01T07:29:03;31.50;48.80
40868;DHT22;26586;50.708;22.412;2022-07-01T07:31:33;31.50;47.60
40868;DHT22;26586;50.708;22.412;2022-07-01T07:33:59;31.50;47.50
40868;DHT22;26586;50.708;22.412;2022-07-01T07:36:26;31.60;47.40
40868;DHT22;26586;50.708;22.412;2022-07-01T07:38:53;31.60;47.20
40868;DHT22;26586;50.708;22.412;2022-07-01T07:41:19;31.70;47.50
40868;DHT22;26586;50.708;22.412;2022-07-01T07:43:48;31.70;47.50
40868;DHT22;26586;50.708;22.412;2022-07-01T07:46:15;31.80;48.10
40868;DHT22;26586;50.708;22.412;2022-07-01T07:48:41;31.80;47.00
40868;DHT22;26586;50.708;22.412;2022-07-01T07:51:10;31.90;47.40
40868;DHT22;26586;50.708;22.412;2022-07-01T07:53:40;32.00;46.50
40868;DHT22;26586;50.708;22.412;2022-07-01T07:56:07;32.00;46.70
40868;DHT22;26586;50.708;22.412;2022-07-01T07:58:33;32.10;47.40
40868;DHT22;26586;50.708;22.412;2022-07-01T08:00:59;32.10;45.20
40868;DHT22;26586;50.708;22.412;2022-07-01T08:03:26;32.10;44.90
40868;DHT22;26586;50.708;22.412;2022-07-01T08:05:52;32.20;45.90
40868;DHT22;26586;50.708;22.412;2022-07-01T08:08:18;32.20;45.60
40868;DHT22;26586;50.708;22.412;2022-07-01T08:10:48;32.30;45.70
40868;DHT22;26586;50.708;22.412;2022-07-01T08:13:14;32.40;45.30
40868;DHT22;26586;50.708;22.412;2022-07-01T08:15:41;32.40;45.60
40868;DHT22;26586;50.708;22.412;2022-07-01T08:18:09;32.50;45.40
40868;DHT22;26586;50.708;22.412;2022-07-01T08:20:38;32.50;45.40
40868;DHT22;26586;50.708;22.412;2022-07-01T08:23:04;32.60;44.70
40868;DHT22;26586;50.708;22.412;2022-07-01T08:25:31;32.60;45.20
40868;DHT22;26586;50.708;22.412;2022-07-01T08:27:57;32.70;45.60
40868;DHT22;26586;50.708;22.412;2022-07-01T08:30:33;32.70;44.00
40868;DHT22;26586;50.708;22.412;2022-07-01T08:32:59;32.70;44.40
40868;DHT22;26586;50.708;22.412;2022-07-01T08:35:26;32.80;44.10
40868;DHT22;26586;50.708;22.412;2022-07-01T08:37:52;32.90;44.80
40868;DHT22;26586;50.708;22.412;2022-07-01T08:40:19;32.90;46.10
40868;DHT22;26586;50.708;22.412;2022-07-01T08:42:50;33.00;45.60
40868;DHT22;26586;50.708;22.412;2022-07-01T08:45:16;33.00;46.90
40868;DHT22;26586;50.708;22.412;2022-07-01T08:47:53;33.10;47.10
40868;DHT22;26586;50.708;22.412;2022-07-01T08:50:24;33.10;46.60
40868;DHT22;26586;50.708;22.412;2022-07-01T08:52:51;33.20;47.10
40868;DHT22;26586;50.708;22.412;2022-07-01T08:55:19;33.20;46.60
40868;DHT22;26586;50.708;22.412;2022-07-01T08:57:46;33.20;46.90
40868;DHT22;26586;50.708;22.412;2022-07-01T09:00:13;33.30;46.50
40868;DHT22;26586;50.708;22.412;2022-07-01T09:02:54;33.30;46.50
40868;DHT22;26586;50.708;22.412;2022-07-01T09:05:22;33.30;46.70
40868;DHT22;26586;50.708;22.412;2022-07-01T09:07:49;33.40;45.60
40868;DHT22;26586;50.708;22.412;2022-07-01T09:10:21;33.40;45.40
40868;DHT22;26586;50.708;22.412;2022-07-01T09:12:47;33.50;45.40
40868;DHT22;26586;50.708;22.412;2022-07-01T09:18:04;33.50;44.70
40868;DHT22;26586;50.708;22.412;2022-07-01T09:20:33;33.50;45.40
40868;DHT22;26586;50.708;22.412;2022-07-01T09:23:07;33.60;45.20
40868;DHT22;26586;50.708;22.412;2022-07-01T09:25:45;33.60;44.30
40868;DHT22;26586;50.708;22.412;2022-07-01T09:28:13;33.60;44.70
40868;DHT22;26586;50.708;22.412;2022-07-01T09:30:43;33.60;42.60
40868;DHT22;26586;50.708;22.412;2022-07-01T09:33:13;33.70;42.80
40868;DHT22;26586;50.708;22.412;2022-07-01T09:35:41;33.70;43.20
40868;DHT22;26586;50.708;22.412;2022-07-01T09:38:13;33.70;43.80
40868;DHT22;26586;50.708;22.412;2022-07-01T09:41:02;33.70;41.30
40868;DHT22;26586;50.708;22.412;2022-07-01T09:43:34;33.80;42.00
40868;DHT22;26586;50.708;22.412;2022-07-01T09:46:02;33.80;41.40
40868;DHT22;26586;50.708;22.412;2022-07-01T09:51:00;33.90;41.50
40868;DHT22;26586;50.708;22.412;2022-07-01T09:53:26;33.90;41.40
40868;DHT22;26586;50.708;22.412;2022-07-01T09:55:55;33.90;38.70
40868;DHT22;26586;50.708;22.412;2022-07-01T09:58:22;33.90;39.90
40868;DHT22;26586;50.708;22.412;2022-07-01T10:00:49;34.00;40.70
40868;DHT22;26586;50.708;22.412;2022-07-01T10:03:18;34.00;41.20
40868;DHT22;26586;50.708;22.412;2022-07-01T10:05:57;34.00;41.00
40868;DHT22;26586;50.708;22.412;2022-07-01T10:14:05;34.10;39.40
40868;DHT22;26586;50.708;22.412;2022-07-01T10:16:32;34.10;40.30
40868;DHT22;26586;50.708;22.412;2022-07-01T10:21:56;34.20;39.00
40868;DHT22;26586;50.708;22.412;2022-07-01T10:24:26;34.20;40.50
40868;DHT22;26586;50.708;22.412;2022-07-01T10:26:58;34.20;39.90
40868;DHT22;26586;50.708;22.412;2022-07-01T10:29:32;34.20;40.10
40868;DHT22;26586;50.708;22.412;2022-07-01T10:35:06;34.30;39.80
40868;DHT22;26586;50.708;22.412;2022-07-01T10:37:32;34.30;40.40
40868;DHT22;26586;50.708;22.412;2022-07-01T10:40:01;34.40;39.10
40868;DHT22;26586;50.708;22.412;2022-07-01T10:42:33;34.40;39.70
40868;DHT22;26586;50.708;22.412;2022-07-01T10:45:08;34.40;39.70
40868;DHT22;26586;50.708;22.412;2022-07-01T10:47:36;34.40;39.20
40868;DHT22;26586;50.708;22.412;2022-07-01T10:50:14;34.40;39.30
40868;DHT22;26586;50.708;22.412;2022-07-01T10:53:04;34.40;40.40
40868;DHT22;26586;50.708;22.412;2022-07-01T10:55:38;34.40;41.20
40868;DHT22;26586;50.708;22.412;2022-07-01T10:58:05;34.50;41.60
40868;DHT22;26586;50.708;22.412;2022-07-01T11:00:31;34.50;41.20
40868;DHT22;26586;50.708;22.412;2022-07-01T11:03:17;34.50;40.20
40868;DHT22;26586;50.708;22.412;2022-07-01T11:05:46;34.50;41.00
40868;DHT22;26586;50.708;22.412;2022-07-01T11:08:13;34.50;41.40
40868;DHT22;26586;50.708;22.412;2022-07-01T11:10:40;34.50;42.20
40868;DHT22;26586;50.708;22.412;2022-07-01T11:13:08;34.50;41.10
40868;DHT22;26586;50.708;22.412;2022-07-01T11:15:38;34.50;41.20
40868;DHT22;26586;50.708;22.412;2022-07-01T11:18:04;34.50;41.70
40868;DHT22;26586;50.708;22.412;2022-07-01T11:20:34;34.60;41.50
40868;DHT22;26586;50.708;22.412;2022-07-01T11:23:00;34.60;41.80
40868;DHT22;26586;50.708;22.412;2022-07-01T11:25:27;34.60;41.60
40868;DHT22;26586;50.708;22.412;2022-07-01T11:27:56;34.60;41.00
40868;DHT22;26586;50.708;22.412;2022-07-01T11:30:23;34.60;41.00
40868;DHT22;26586;50.708;22.412;2022-07-01T11:32:55;34.60;40.70
40868;DHT22;26586;50.708;22.412;2022-07-01T11:35:27;34.60;41.00
40868;DHT22;26586;50.708;22.412;2022-07-01T11:38:15;34.60;41.50
40868;DHT22;26586;50.708;22.412;2022-07-01T11:41:10;34.60;41.60
40868;DHT22;26586;50.708;22.412;2022-07-01T11:43:42;34.60;40.90
40868;DHT22;26586;50.708;22.412;2022-07-01T11:46:09;34.60;40.20
40868;DHT22;26586;50.708;22.412;2022-07-01T11:48:41;34.60;41.30
40868;DHT22;26586;50.708;22.412;2022-07-01T11:51:13;34.60;42.00
40868;DHT22;26586;50.708;22.412;2022-07-01T11:53:42;34.60;41.30
40868;DHT22;26586;50.708;22.412;2022-07-01T11:56:08;34.60;41.00
40868;DHT22;26586;50.708;22.412;2022-07-01T12:01:08;34.60;41.00
40868;DHT22;26586;50.708;22.412;2022-07-01T12:03:35;34.60;41.40
40868;DHT22;26586;50.708;22.412;2022-07-01T12:06:04;34.60;42.00
40868;DHT22;26586;50.708;22.412;2022-07-01T12:08:31;34.60;41.80
40868;DHT22;26586;50.708;22.412;2022-07-01T12:10:57;34.50;41.60
40868;DHT22;26586;50.708;22.412;2022-07-01T12:13:27;34.50;41.20
40868;DHT22;26586;50.708;22.412;2022-07-01T12:15:53;34.60;42.60
40868;DHT22;26586;50.708;22.412;2022-07-01T12:18:19;34.50;41.60
40868;DHT22;26586;50.708;22.412;2022-07-01T12:20:50;34.50;41.20
40868;DHT22;26586;50.708;22.412;2022-07-01T12:23:17;34.50;40.70
40868;DHT22;26586;50.708;22.412;2022-07-01T12:25:47;34.50;41.50
40868;DHT22;26586;50.708;22.412;2022-07-01T12:31:06;34.40;42.80
40868;DHT22;26586;50.708;22.412;2022-07-01T12:33:34;34.40;43.70
40868;DHT22;26586;50.708;22.412;2022-07-01T12:36:02;34.40;43.80
40868;DHT22;26586;50.708;22.412;2022-07-01T12:38:29;34.30;42.70
40868;DHT22;26586;50.708;22.412;2022-07-01T12:40:56;34.30;43.00
40868;DHT22;26586;50.708;22.412;2022-07-01T12:43:28;34.30;43.40
40868;DHT22;26586;50.708;22.412;2022-07-01T12:45:56;34.30;43.20
40868;DHT22;26586;50.708;22.412;2022-07-01T12:48:23;34.30;42.70
40868;DHT22;26586;50.708;22.412;2022-07-01T12:50:55;34.30;41.70
40868;DHT22;26586;50.708;22.412;2022-07-01T12:53:23;34.30;41.60
40868;DHT22;26586;50.708;22.412;2022-07-01T12:55:55;34.30;41.40
40868;DHT22;26586;50.708;22.412;2022-07-01T12:58:24;34.30;41.70
40868;DHT22;26586;50.708;22.412;2022-07-01T13:00:54;34.30;41.90
40868;DHT22;26586;50.708;22.412;2022-07-01T13:03:22;34.40;42.10
40868;DHT22;26586;50.708;22.412;2022-07-01T13:05:49;34.30;42.20
40868;DHT22;26586;50.708;22.412;2022-07-01T13:08:16;34.30;42.70
40868;DHT22;26586;50.708;22.412;2022-07-01T13:10:44;34.30;43.40
40868;DHT22;26586;50.708;22.412;2022-07-01T13:13:10;34.30;42.50
40868;DHT22;26586;50.708;22.412;2022-07-01T13:15:37;34.30;42.60
40868;DHT22;26586;50.708;22.412;2022-07-01T13:18:03;34.30;42.70
40868;DHT22;26586;50.708;22.412;2022-07-01T13:20:31;34.30;42.20
40868;DHT22;26586;50.708;22.412;2022-07-01T13:22:57;34.30;42.30
40868;DHT22;26586;50.708;22.412;2022-07-01T13:25:24;34.30;42.00
40868;DHT22;26586;50.708;22.412;2022-07-01T13:27:50;34.30;41.80
40868;DHT22;26586;50.708;22.412;2022-07-01T13:30:17;34.30;41.70
40868;DHT22;26586;50.708;22.412;2022-07-01T13:32:44;34.30;41.90
40868;DHT22;26586;50.708;22.412;2022-07-01T13:35:12;34.30;41.80
40868;DHT22;26586;50.708;22.412;2022-07-01T13:37:40;34.20;41.50
40868;DHT22;26586;50.708;22.412;2022-07-01T13:40:07;34.30;41.80
40868;DHT22;26586;50.708;22.412;2022-07-01T13:42:34;34.20;42.00
40868;DHT22;26586;50.708;22.412;2022-07-01T13:45:01;34.20;42.50
40868;DHT22;26586;50.708;22.412;2022-07-01T13:47:27;34.20;42.90
40868;DHT22;26586;50.708;22.412;2022-07-01T13:49:54;34.20;43.10
40868;DHT22;26586;50.708;22.412;2022-07-01T13:52:20;34.10;42.70
40868;DHT22;26586;50.708;22.412;2022-07-01T13:54:49;34.10;42.50
40868;DHT22;26586;50.708;22.412;2022-07-01T13:57:16;34.10;42.60
40868;DHT22;26586;50.708;22.412;2022-07-01T13:59:43;34.10;42.40
40868;DHT22;26586;50.708;22.412;2022-07-01T14:02:09;34.10;42.70
40868;DHT22;26586;50.708;22.412;2022-07-01T14:04:36;34.10;42.80
40868;DHT22;26586;50.708;22.412;2022-07-01T14:07:02;34.10;42.90
40868;DHT22;26586;50.708;22.412;2022-07-01T14:09:28;34.00;42.90
40868;DHT22;26586;50.708;22.412;2022-07-01T14:11:55;34.00;42.90
40868;DHT22;26586;50.708;22.412;2022-07-01T14:14:21;34.00;42.20
40868;DHT22;26586;50.708;22.412;2022-07-01T14:16:48;34.00;42.00
40868;DHT22;26586;50.708;22.412;2022-07-01T14:19:14;34.00;42.10
40868;DHT22;26586;50.708;22.412;2022-07-01T14:21:49;34.00;42.50
40868;DHT22;26586;50.708;22.412;2022-07-01T14:24:16;34.00;42.60
40868;DHT22;26586;50.708;22.412;2022-07-01T14:26:42;33.90;42.80
40868;DHT22;26586;50.708;22.412;2022-07-01T14:29:09;33.90;43.10
40868;DHT22;26586;50.708;22.412;2022-07-01T14:31:35;33.90;42.80
40868;DHT22;26586;50.708;22.412;2022-07-01T14:34:01;33.90;43.70
40868;DHT22;26586;50.708;22.412;2022-07-01T14:36:29;33.90;42.60
40868;DHT22;26586;50.708;22.412;2022-07-01T14:38:55;33.90;43.30
40868;DHT22;26586;50.708;22.412;2022-07-01T14:41:21;33.90;43.30
40868;DHT22;26586;50.708;22.412;2022-07-01T14:43:52;33.90;42.70
40868;DHT22;26586;50.708;22.412;2022-07-01T14:46:18;33.90;42.60
40868;DHT22;26586;50.708;22.412;2022-07-01T14:48:44;33.90;42.40
40868;DHT22;26586;50.708;22.412;2022-07-01T14:51:10;33.90;42.70
40868;DHT22;26586;50.708;22.412;2022-07-01T14:53:37;33.90;42.80
40868;DHT22;26586;50.708;22.412;2022-07-01T14:56:03;33.90;42.80
40868;DHT22;26586;50.708;22.412;2022-07-01T14:58:30;33.90;42.70
40868;DHT22;26586;50.708;22.412;2022-07-01T15:00:56;33.90;42.70
40868;DHT22;26586;50.708;22.412;2022-07-01T15:03:25;33.90;42.70
40868;DHT22;26586;50.708;22.412;2022-07-01T15:05:52;33.90;42.50
40868;DHT22;26586;50.708;22.412;2022-07-01T15:08:21;33.90;42.40
40868;DHT22;26586;50.708;22.412;2022-07-01T15:10:47;33.90;42.40
40868;DHT22;26586;50.708;22.412;2022-07-01T15:13:15;33.90;42.50
40868;DHT22;26586;50.708;22.412;2022-07-01T15:15:41;33.90;43.20
40868;DHT22;26586;50.708;22.412;2022-07-01T15:18:11;33.80;42.70
40868;DHT22;26586;50.708;22.412;2022-07-01T15:20:37;33.80;42.20
40868;DHT22;26586;50.708;22.412;2022-07-01T15:23:07;33.80;41.90
40868;DHT22;26586;50.708;22.412;2022-07-01T15:25:34;33.80;41.90
40868;DHT22;26586;50.708;22.412;2022-07-01T15:28:00;33.80;41.90
40868;DHT22;26586;50.708;22.412;2022-07-01T15:30:26;33.80;42.00
40868;DHT22;26586;50.708;22.412;2022-07-01T15:32:53;33.80;42.30
40868;DHT22;26586;50.708;22.412;2022-07-01T15:35:23;33.80;42.10
40868;DHT22;26586;50.708;22.412;2022-07-01T15:37:53;33.80;41.80
40868;DHT22;26586;50.708;22.412;2022-07-01T15:40:19;33.80;42.00